UMMS Airport Information

Runway Information
Runway 13 Length 11946 ft width 197 ft
Elevation 640 ft Threshold 0 ft Heading 139
Runway 31 Length 11946 ft Width 197 ft
Elevation 670 ft Threshold 0 ft Heading 319
Airport Frequencies
Type APP Name MINSK APP Frequency 125.9 MHZ
Type ATIS Name ATIS Frequency 128.85 MHZ
Type GND Name GND Frequency 121.7 MHZ
Type PMSV Name MINSK VOLM Frequency 126.675 MHZ
Type RDR Name MINSK RADA Frequency 125.25 MHZ
Type TWR Name TWR Frequency 118.3 MHZ
Airport Navaids
Type NDB Name Minsk-2 Frequency 635 KHZ
Type VOR-DME Name Minsk-2 Frequency 113600 KHZ
Type NDB Name Minsk-2 Frequency 635 KHZ
Airport Weather Information & NOTAM
ADDS - METARS form results

(0524 UTC 19 June 2019)
Data provider http://aviationweather.gov/metar/data/
 
METAR text: UMMS 190500Z VRB01MPS CAVOK 21/13 Q1019 R88/D NOSIG
Conditions at: UMMS (MINSK , BY) observed 0500 UTC 19 June 2019
Temperature: 21.0°C (70°F)
Dewpoint: 13.0°C (55°F) [RH = 60%]
Pressure (altimeter): 30.09 inches Hg (1019.0 mb)
Winds: variable direction winds at 2 MPH (2 knots; 1.0 m/s)
Visibility: 6 or more miles (10+ km)
Ceiling: ceiling and visibility are OK
Clouds: unknown
Weather: no significant weather observed at this time

METAR text: UMMS 190430Z VRB01MPS CAVOK 19/12 Q1019 R88/D NOSIG
Conditions at: UMMS (MINSK , BY) observed 0430 UTC 19 June 2019
Temperature: 19.0°C (66°F)
Dewpoint: 12.0°C (54°F) [RH = 64%]
Pressure (altimeter): 30.09 inches Hg (1019.0 mb)
Winds: variable direction winds at 2 MPH (2 knots; 1.0 m/s)
Visibility: 6 or more miles (10+ km)
Ceiling: ceiling and visibility are OK
Clouds: unknown
Weather: no significant weather observed at this time

Forecast for: UMMS (MINSK , BY)
Text: TAF UMMS 190507Z 1906/2006 VRB02MPS 9999 NSC TX26/1913Z TN12/2002Z
Forecast period: 0600 to 0800 UTC 19 June 2019
Forecast type: FROM: standard forecast or significant change
Winds: variable direction winds at 5 MPH (4 knots; 2.1 m/s)
Visibility: 6 or more miles 10+ km)
Ceiling: unknown
Clouds: missing
Weather: no significant weather forecast for this period
Text: BECMG 1908/1910 10005G10MPS SCT030
Forecast period: 0800 UTC 19 June 2019 to 0600 UTC 20 June 2019
Forecast type: BECOMING: Conditions expected to become as follows by 1000 UTC 19 June 2019
Winds: from the E (100 degrees) at 12 MPH (10 knots; 5.1 m/s)
gusting to 22 MPH (19 knots; 9.8 m/s)
Visibility: 6 or more miles 10+ km)
Ceiling: at least 12,000 feet AGL
Clouds: scattered clouds at 3000 feet AGL
Weather: no significant weather forecast for this period
Text: TEMPO 1923/2004 2000 BR BKN003
Forecast period: 2300 UTC 19 June 2019 to 0400 UTC 20 June 2019
Forecast type: TEMPORARY: The following changes expected for less than half the time period
Visibility: 1.24 miles (2.00 km)
Ceiling: 300 feet AGL
Clouds: broken clouds at 300 feet AGL
Weather: BR  (mist)